Weather History for KASW - December, 2013

Change the Weather History Date:

Thursday, December 26, 2013

  Actual Average Record
Temperature  
Mean Temperature 26 °F -  
Max Temperature 32 °F 29 °F 55 °F (1982)
Min Temperature 19 °F 14 °F -12 °F (1983)
Degree Days  
Heating Degree Days 40    
Moisture  
Dew Point 21 °F    
Average Humidity 78    
Maximum Humidity 100    
Minimum Humidity 64    
Precipitation  
Precipitation 0.00 in - - ()
Sea Level Pressure  
Sea Level Pressure 30.21 in    
Wind  
Wind Speed 10 mph (SW)    
Max Wind Speed 20 mph    
Max Gust Speed 25 mph    
Visibility 9 miles    
Events Snow    
Averages and records for this station are not official NWS values.
T = Trace of Precipitation, MM = Missing Value Source: NWS Daily Summary

Daily Weather History Graph

Daily Weather History Graph

Search for Another Location

Airport or City:

Trip Planner

Search our weather history database for the weather conditions in past years. The results will help you decide how hot, cold, wet, or windy it might be!

Date:

Astronomy

Dec. 26, 2013 Rise Set
Actual Time 8:07 AM EST 5:20 PM EST
Civil Twilight 7:36 AM EST 5:51 PM EST
Nautical Twilight 7:01 AM EST 6:26 PM EST
Astronomical Twilight 6:28 AM EST 7:00 PM EST
Moon 1:33 AM EST 12:58 PM EST
Length of Visible Light 10h 15m
Length of Day
9h 12m
Last Quarter, 38% of the Moon is Illuminated
Dec 26
Last Quarter
Jan 1
New
Jan 7
First Quarter
Jan 15
Full
Jan 24
Last Quarter

Hourly Weather History & Observations

Time (EST) Temp. Windchill Dew Point Humidity Pressure Visibility Wind Dir Wind Speed Gust Speed Precip Events Conditions
12:15 AM 26.6 °F 19.1 °F 26.6 °F 100% 30.10 in 7.0 mi SW 6.9 mph - N/A   Overcast
12:35 AM 28.4 °F 19.1 °F 26.6 °F 93% 30.09 in 4.0 mi WSW 10.4 mph - N/A   Overcast
12:55 AM 28.4 °F 19.7 °F 26.6 °F 93% 30.09 in 3.0 mi SW 9.2 mph - N/A Snow Light Snow
1:15 AM 28.4 °F 22.2 °F 26.6 °F 93% 30.08 in 2.5 mi WSW 5.8 mph - N/A Snow Light Snow
1:35 AM 28.4 °F 19.1 °F 26.6 °F 93% 30.07 in 4.0 mi WSW 10.4 mph - N/A Snow Light Snow
1:55 AM 28.4 °F 18.5 °F 26.6 °F 93% 30.07 in 4.0 mi WSW 11.5 mph - N/A   Overcast
2:15 AM 28.4 °F 17.5 °F 26.6 °F 93% 30.08 in 10.0 mi West 13.8 mph - N/A   Overcast
2:35 AM 28.4 °F 17.5 °F 26.6 °F 93% 30.09 in 10.0 mi West 13.8 mph 20.7 mph N/A Snow Light Snow
2:55 AM 28.4 °F 18.0 °F 26.6 °F 93% 30.09 in 10.0 mi West 12.7 mph 24.2 mph N/A   Overcast
3:15 AM 28.4 °F 15.4 °F 24.8 °F 86% 30.10 in 10.0 mi West 19.6 mph 25.3 mph N/A   Overcast
3:35 AM 26.6 °F 14.7 °F 24.8 °F 93% 30.10 in 7.0 mi West 15.0 mph - N/A   Overcast
3:55 AM 26.6 °F 13.4 °F 23.0 °F 86% 30.11 in 7.0 mi West 18.4 mph 25.3 mph N/A   Overcast
4:15 AM 26.6 °F 15.2 °F 23.0 °F 86% 30.11 in 7.0 mi West 13.8 mph 21.9 mph N/A   Overcast
4:35 AM 26.6 °F 14.7 °F 23.0 °F 86% 30.12 in 10.0 mi West 15.0 mph 25.3 mph N/A   Overcast
4:55 AM 26.6 °F 14.3 °F 21.2 °F 80% 30.12 in 10.0 mi West 16.1 mph 23.0 mph N/A   Overcast
5:15 AM 26.6 °F 13.4 °F 21.2 °F 80% 30.13 in 10.0 mi West 18.4 mph 25.3 mph N/A   Mostly Cloudy
5:35 AM 24.8 °F 11.1 °F 19.4 °F 80% 30.13 in 10.0 mi West 18.4 mph 24.2 mph N/A   Scattered Clouds
5:55 AM 23.0 °F 10.6 °F 19.4 °F 86% 30.14 in 10.0 mi West 13.8 mph - N/A   Mostly Cloudy
6:15 AM 23.0 °F 10.6 °F 17.6 °F 80% 30.15 in 10.0 mi West 13.8 mph 20.7 mph N/A   Mostly Cloudy
6:35 AM 21.2 °F 6.8 °F 17.6 °F 86% 30.17 in 10.0 mi West 17.3 mph 23.0 mph N/A   Overcast
6:55 AM 21.2 °F 7.3 °F 17.6 °F 86% 30.18 in 10.0 mi West 16.1 mph 21.9 mph N/A   Overcast
7:15 AM 21.2 °F 8.3 °F 15.8 °F 80% 30.19 in 10.0 mi WNW 13.8 mph 24.2 mph N/A   Overcast
7:35 AM 19.4 °F 7.2 °F 15.8 °F 86% 30.20 in 10.0 mi WSW 11.5 mph - N/A   Overcast
7:55 AM 19.4 °F 8.6 °F 14.0 °F 80% 30.20 in 10.0 mi West 9.2 mph - N/A   Overcast
8:15 AM 19.4 °F 11.5 °F 14.0 °F 80% 30.20 in 10.0 mi WSW 5.8 mph - N/A   Overcast
8:35 AM 19.4 °F 8.6 °F 14.0 °F 80% 30.21 in 10.0 mi WSW 9.2 mph - N/A   Overcast
8:55 AM 19.4 °F 7.2 °F 14.0 °F 80% 30.23 in 10.0 mi WSW 11.5 mph - N/A   Overcast
9:15 AM 19.4 °F 7.2 °F 14.0 °F 80% 30.25 in 10.0 mi West 11.5 mph 17.3 mph N/A   Overcast
9:35 AM 19.4 °F 9.5 °F 14.0 °F 80% 30.25 in 10.0 mi West 8.1 mph - N/A   Overcast
9:55 AM 19.4 °F 7.9 °F 14.0 °F 80% 30.26 in 10.0 mi West 10.4 mph - N/A   Scattered Clouds
10:15 AM 19.4 °F 9.5 °F 14.0 °F 80% 30.27 in 10.0 mi WSW 8.1 mph - N/A   Clear
10:35 AM 21.2 °F 10.1 °F 14.0 °F 74% 30.29 in 10.0 mi WSW 10.4 mph - N/A   Scattered Clouds
10:55 AM 21.2 °F 9.5 °F 14.0 °F 74% 30.29 in 10.0 mi WSW 11.5 mph - N/A   Scattered Clouds
11:15 AM 23.0 °F 13.1 °F 14.0 °F 68% 30.29 in 10.0 mi WSW 9.2 mph - N/A   Clear
11:35 AM 23.0 °F 12.4 °F 14.0 °F 68% 30.30 in 10.0 mi West 10.4 mph 16.1 mph N/A   Clear
11:55 AM 23.0 °F 13.9 °F 14.0 °F 68% 30.29 in 10.0 mi WSW 8.1 mph - N/A   Clear
12:15 PM 24.8 °F 16.1 °F 14.0 °F 64% 30.28 in 10.0 mi WSW 8.1 mph - N/A   Clear
12:35 PM 24.8 °F 14.6 °F 14.0 °F 64% 30.29 in 10.0 mi WSW 10.4 mph - N/A   Mostly Cloudy
12:55 PM 26.6 °F 16.8 °F 15.8 °F 64% 30.29 in 10.0 mi West 10.4 mph - N/A   Overcast
1:15 PM 26.6 °F 16.8 °F 15.8 °F 64% 30.30 in 10.0 mi WSW 10.4 mph - N/A   Overcast
1:35 PM 26.6 °F 20.0 °F 15.8 °F 64% 30.29 in 10.0 mi WSW 5.8 mph - N/A   Overcast
1:55 PM 26.6 °F 18.2 °F 17.6 °F 69% 30.29 in 10.0 mi SW 8.1 mph - N/A   Overcast
2:15 PM 26.6 °F 18.2 °F 17.6 °F 69% 30.28 in 10.0 mi WSW 8.1 mph - N/A   Overcast
2:35 PM 28.4 °F 21.2 °F 19.4 °F 69% 30.28 in 10.0 mi WSW 6.9 mph - N/A   Overcast
2:55 PM 28.4 °F 22.2 °F 19.4 °F 69% 30.28 in 10.0 mi WSW 5.8 mph - N/A   Overcast
3:15 PM 28.4 °F 22.2 °F 19.4 °F 69% 30.27 in 10.0 mi SW 5.8 mph - N/A   Overcast
3:35 PM 28.4 °F 21.2 °F 19.4 °F 69% 30.26 in 10.0 mi SW 6.9 mph - N/A   Overcast
3:55 PM 28.4 °F 22.2 °F 19.4 °F 69% 30.26 in 10.0 mi SW 5.8 mph - N/A   Overcast
4:15 PM 28.4 °F 23.3 °F 21.2 °F 74% 30.27 in 10.0 mi SSW 4.6 mph - N/A   Overcast
4:35 PM 28.4 °F 23.3 °F 21.2 °F 74% 30.27 in 10.0 mi South 4.6 mph - N/A   Overcast
4:55 PM 28.4 °F 23.3 °F 21.2 °F 74% 30.27 in 10.0 mi South 4.6 mph - N/A   Overcast
5:15 PM 30.2 °F 25.4 °F 21.2 °F 69% 30.27 in 10.0 mi South 4.6 mph - N/A   Overcast
5:35 PM 30.2 °F 26.7 °F 23.0 °F 75% 30.27 in 10.0 mi South 3.5 mph - N/A   Overcast
5:55 PM 30.2 °F 25.4 °F 21.2 °F 69% 30.27 in 10.0 mi South 4.6 mph - N/A   Overcast
6:15 PM 30.2 °F 25.4 °F 21.2 °F 69% 30.26 in 10.0 mi South 4.6 mph - N/A   Mostly Cloudy
6:35 PM 30.2 °F 25.4 °F 21.2 °F 69% 30.26 in 10.0 mi South 4.6 mph - N/A   Overcast
6:55 PM 30.2 °F 23.4 °F 23.0 °F 75% 30.25 in 10.0 mi South 6.9 mph - N/A   Overcast
7:15 PM 30.2 °F 24.3 °F 23.0 °F 75% 30.25 in 10.0 mi South 5.8 mph - N/A   Mostly Cloudy
7:35 PM 30.2 °F 23.4 °F 23.0 °F 75% 30.24 in 10.0 mi South 6.9 mph - N/A   Scattered Clouds
7:55 PM 30.2 °F 24.3 °F 23.0 °F 75% 30.24 in 10.0 mi SSW 5.8 mph - N/A   Scattered Clouds
8:15 PM 32.0 °F 24.8 °F 23.0 °F 69% 30.23 in 10.0 mi South 8.1 mph - N/A   Mostly Cloudy
8:35 PM 32.0 °F 24.2 °F 23.0 °F 69% 30.23 in 10.0 mi SSW 9.2 mph - N/A   Overcast
8:55 PM 32.0 °F 25.6 °F 23.0 °F 69% 30.22 in 10.0 mi South 6.9 mph - N/A   Mostly Cloudy
9:15 PM 32.0 °F 26.4 °F 24.8 °F 75% 30.23 in 10.0 mi South 5.8 mph - N/A   Overcast
9:35 PM 32.0 °F 27.5 °F 24.8 °F 75% 30.23 in 10.0 mi SSW 4.6 mph - N/A   Overcast
9:55 PM 32.0 °F 25.6 °F 24.8 °F 75% 30.24 in 10.0 mi SW 6.9 mph - N/A   Overcast
10:15 PM 32.0 °F 25.6 °F 24.8 °F 75% 30.24 in 10.0 mi SW 6.9 mph - N/A   Overcast
10:35 PM 32.0 °F 27.5 °F 24.8 °F 75% 30.24 in 10.0 mi SW 4.6 mph - N/A   Overcast
10:55 PM 32.0 °F 24.8 °F 26.6 °F 80% 30.25 in 10.0 mi SW 8.1 mph - N/A   Overcast
11:15 PM 32.0 °F 25.6 °F 26.6 °F 80% 30.25 in 10.0 mi WSW 6.9 mph - N/A   Overcast
11:35 PM 32.0 °F 26.4 °F 26.6 °F 80% 30.25 in 10.0 mi SW 5.8 mph - N/A   Overcast
11:55 PM 32.0 °F 26.4 °F 26.6 °F 80% 30.24 in 10.0 mi SW 5.8 mph - N/A   Overcast